Time;durP1;ratioP1;P1;durP2;ratioP2;P2;SDS_P1;SDS_P2;PMS_P1;PMS_P2;Temp;Humidity;BMP_temperature;BMP_pressure;BME280_temperature;BME280_humidity;BME280_pressure;Samples;Min_cycle;Max_cycle;Signal;HPM_P1;HPM_P2
2023/04/03 00:01:14;;;;;;;2.55;2.30;;;;;;;4.24;77.39;102392.03;5009428;28;20726;-68
2023/04/03 00:03:43;;;;;;;5.70;2.97;;;;;;;4.22;76.94;102383.38;5014502;28;20045;-68
2023/04/03 00:06:10;;;;;;;6.25;3.00;;;;;;;4.21;77.99;102385.06;5012297;28;20042;-67
2023/04/03 00:08:36;;;;;;;6.60;2.90;;;;;;;4.21;78.49;102391.88;5013071;28;20360;-68
2023/04/03 00:11:03;;;;;;;6.18;2.75;;;;;;;4.22;78.08;102393.59;5013138;28;20056;-68
2023/04/03 00:13:29;;;;;;;3.40;2.25;;;;;;;4.22;78.76;102393.59;5014460;28;20037;-68
2023/04/03 00:15:55;;;;;;;6.07;2.67;;;;;;;4.23;78.73;102395.38;5013532;28;20470;-68
2023/04/03 00:18:21;;;;;;;4.28;2.72;;;;;;;4.20;79.56;102390.13;5013817;28;20047;-68
2023/04/03 00:20:47;;;;;;;7.68;2.72;;;;;;;4.16;80.63;102391.66;5014976;28;20106;-68
2023/04/03 00:23:13;;;;;;;6.28;2.58;;;;;;;4.16;80.46;102390.78;5008948;28;20038;-68
2023/04/03 00:25:39;;;;;;;4.70;2.00;;;;;;;4.16;79.53;102384.00;5014028;28;20045;-69
2023/04/03 00:28:04;;;;;;;5.13;2.60;;;;;;;4.20;78.71;102382.44;5007874;28;20040;-68
2023/04/03 00:30:30;;;;;;;3.85;2.40;;;;;;;4.20;78.03;102375.66;4997213;28;20069;-68
2023/04/03 00:32:56;;;;;;;3.78;1.95;;;;;;;4.20;76.92;102373.09;5006788;28;20041;-68
2023/04/03 00:35:23;;;;;;;3.17;1.90;;;;;;;4.19;76.41;102367.88;5016659;28;20045;-68
2023/04/03 00:37:52;;;;;;;7.53;2.70;;;;;;;4.19;76.84;102368.78;5013279;28;20336;-68
2023/04/03 00:40:18;;;;;;;4.93;2.03;;;;;;;4.17;77.13;102372.06;5015809;28;20033;-67
2023/04/03 00:42:46;;;;;;;3.33;2.13;;;;;;;4.17;77.17;102370.41;5015561;28;20514;-68
2023/04/03 00:45:17;;;;;;;4.78;2.08;;;;;;;4.16;76.49;102366.06;5014342;28;20049;-68
2023/04/03 00:47:43;;;;;;;7.72;2.20;;;;;;;4.16;76.18;102355.84;5015195;28;20532;-68
2023/04/03 00:50:09;;;;;;;4.75;2.17;;;;;;;4.20;75.03;102339.81;5011230;28;20046;-67
2023/04/03 00:52:36;;;;;;;7.35;2.45;;;;;;;4.24;74.01;102335.72;5017740;28;20033;-68
2023/04/03 00:55:05;;;;;;;4.63;2.15;;;;;;;4.26;73.94;102334.09;5019683;28;20100;-68
2023/04/03 00:57:32;;;;;;;3.72;2.20;;;;;;;4.26;73.63;102334.09;5017115;28;20037;-68
2023/04/03 01:00:01;;;;;;;5.72;2.08;;;;;;;4.25;74.46;102338.31;5012206;28;20160;-68
2023/04/03 01:02:27;;;;;;;3.50;2.08;;;;;;;4.22;74.92;102343.31;5012272;28;20033;-68
2023/04/03 01:04:52;;;;;;;3.55;1.98;;;;;;;4.18;75.35;102351.66;5010087;28;20083;-67
2023/04/03 01:07:29;;;;;;;3.63;1.88;;;;;;;4.15;76.52;102371.16;5016035;28;20555;-68
2023/04/03 01:09:58;;;;;;;4.70;1.98;;;;;;;4.09;77.55;102371.75;5014500;28;20759;-68
2023/04/03 01:12:32;;;;;;;5.07;2.25;;;;;;;4.04;78.03;102363.00;5013357;28;20045;-68
2023/04/03 01:15:05;;;;;;;3.08;2.15;;;;;;;3.98;77.56;102362.72;5020489;28;20044;-68
2023/04/03 01:17:32;;;;;;;2.25;1.92;;;;;;;4.02;76.66;102349.25;5015163;28;20038;-68
2023/04/03 01:20:25;;;;;;;3.53;1.90;;;;;;;4.02;76.39;102350.16;5016807;28;20037;-68
2023/04/03 01:23:09;;;;;;;4.13;2.00;;;;;;;4.00;75.97;102349.19;5014480;28;20037;-68
2023/04/03 01:25:41;;;;;;;4.88;2.50;;;;;;;4.01;76.63;102361.19;5016218;28;20857;-68
2023/04/03 01:28:11;;;;;;;5.00;2.00;;;;;;;3.97;77.33;102361.00;5017988;28;20116;-68
2023/04/03 01:31:07;;;;;;;5.25;2.45;;;;;;;3.92;77.87;102359.91;5016004;28;20666;-67
2023/04/03 01:33:32;;;;;;;6.18;2.33;;;;;;;3.90;78.35;102364.97;5015606;28;20120;-69
2023/04/03 01:35:58;;;;;;;4.00;2.30;;;;;;;3.83;78.81;102357.81;5014847;28;20052;-68
2023/04/03 01:38:23;;;;;;;4.05;2.20;;;;;;;3.76;78.57;102360.94;5013518;28;20121;-68
2023/04/03 01:40:48;;;;;;;6.88;2.22;;;;;;;3.75;77.79;102365.94;5020693;28;20085;-68
2023/04/03 01:43:14;;;;;;;6.32;2.60;;;;;;;3.72;77.98;102369.25;5018912;28;20786;-68
2023/04/03 01:45:39;;;;;;;10.00;3.30;;;;;;;3.69;78.58;102368.25;5018149;28;20039;-68
2023/04/03 01:48:05;;;;;;;7.20;2.03;;;;;;;3.62;79.09;102374.75;5013294;28;20030;-68
2023/04/03 01:50:30;;;;;;;9.27;2.72;;;;;;;3.54;79.79;102370.97;5017594;28;20829;-68
2023/04/03 01:52:56;;;;;;;5.47;2.30;;;;;;;3.45;80.63;102371.44;5013757;28;20672;-68
2023/04/03 01:55:21;;;;;;;5.95;2.20;;;;;;;3.41;81.03;102374.66;5013445;28;20510;-68
2023/04/03 01:57:46;;;;;;;4.45;2.35;;;;;;;3.40;80.59;102378.03;5014438;28;20094;-68
2023/04/03 02:00:13;;;;;;;4.85;2.35;;;;;;;3.40;80.49;102366.94;5017946;28;20519;-68
2023/04/03 02:02:39;;;;;;;5.43;2.20;;;;;;;3.35;80.95;102366.69;5020566;28;20046;-68
2023/04/03 02:05:04;;;;;;;3.72;2.45;;;;;;;3.32;80.33;102369.13;5019285;28;20279;-68
2023/04/03 02:07:30;;;;;;;4.68;2.47;;;;;;;3.27;81.67;102372.25;5021443;28;20033;-68
2023/04/03 02:09:56;;;;;;;6.05;2.13;;;;;;;3.17;82.61;102370.94;5017124;28;20045;-68
2023/04/03 02:12:21;;;;;;;4.72;2.13;;;;;;;3.14;82.29;102377.63;5018277;28;20555;-68
2023/04/03 02:14:47;;;;;;;3.72;2.45;;;;;;;3.08;81.97;102373.09;5015991;28;20227;-68
2023/04/03 02:17:12;;;;;;;3.70;2.25;;;;;;;3.06;82.77;102374.69;5017018;28;20038;-67
2023/04/03 02:19:38;;;;;;;4.10;2.45;;;;;;;3.04;82.38;102375.41;5019042;28;20052;-67
2023/04/03 02:22:04;;;;;;;3.55;2.47;;;;;;;3.03;82.57;102382.19;5028358;28;20033;-69
2023/04/03 02:24:31;;;;;;;5.80;2.13;;;;;;;2.99;82.33;102377.78;5020170;28;20083;-69
2023/04/03 02:26:56;;;;;;;4.10;2.10;;;;;;;2.92;82.52;102381.69;5026771;28;20307;-68
2023/04/03 02:29:22;;;;;;;3.47;2.00;;;;;;;2.87;82.48;102388.25;5022031;28;20036;-68
2023/04/03 02:31:47;;;;;;;2.95;2.05;;;;;;;2.82;83.35;102383.72;5018095;28;20084;-67
2023/04/03 02:34:13;;;;;;;3.58;2.25;;;;;;;2.77;83.37;102388.63;5017615;28;20647;-68
2023/04/03 02:36:38;;;;;;;3.75;2.00;;;;;;;2.74;83.83;102387.59;5015184;28;20405;-67
2023/04/03 02:39:04;;;;;;;4.68;2.22;;;;;;;2.73;83.85;102390.94;5016621;28;20752;-68
2023/04/03 02:41:34;;;;;;;6.05;3.08;;;;;;;2.73;83.44;102386.69;5016736;28;20398;-68
2023/04/03 02:44:04;;;;;;;4.05;2.10;;;;;;;2.75;83.92;102380.03;5016181;28;20037;-68
2023/04/03 02:46:29;;;;;;;5.55;2.22;;;;;;;2.74;83.16;102382.47;5011366;28;20107;-67
2023/04/03 02:48:54;;;;;;;4.07;2.28;;;;;;;2.73;83.11;102381.59;5014822;28;20034;-68
2023/04/03 02:51:20;;;;;;;3.88;2.95;;;;;;;2.73;83.49;102388.38;5019215;28;20049;-67
2023/04/03 02:53:45;;;;;;;3.65;2.50;;;;;;;2.69;83.63;102381.38;5013183;28;20062;-68
2023/04/03 02:56:11;;;;;;;3.47;2.20;;;;;;;2.67;83.20;102391.50;5017922;28;20045;-68
2023/04/03 02:58:36;;;;;;;7.72;4.63;;;;;;;2.64;83.66;102395.59;5009543;28;20490;-68
2023/04/03 03:01:02;;;;;;;5.57;1.92;;;;;;;2.58;83.71;102387.66;5018573;28;20446;-67
2023/04/03 03:03:27;;;;;;;3.10;2.10;;;;;;;2.52;83.45;102387.34;5010602;28;20670;-68
2023/04/03 03:06:12;;;;;;;3.78;2.33;;;;;;;2.50;83.69;102388.91;5018972;28;20046;-68
2023/04/03 03:08:38;;;;;;;3.22;2.53;;;;;;;2.48;83.15;102386.31;5017862;28;20045;-68
2023/04/03 03:11:04;;;;;;;2.63;1.92;;;;;;;2.45;82.63;102392.94;5012095;28;20060;-68
2023/04/03 03:13:30;;;;;;;6.35;2.50;;;;;;;2.38;82.43;102390.06;5017869;28;20808;-67
2023/04/03 03:15:56;;;;;;;3.13;2.15;;;;;;;2.32;82.77;102389.75;5011681;28;20534;-68
2023/04/03 03:18:22;;;;;;;5.50;2.00;;;;;;;2.27;82.86;102392.88;5009096;28;20079;-68
2023/04/03 03:20:55;;;;;;;5.85;2.47;;;;;;;2.22;83.49;102395.19;5009427;28;21938;-68
2023/04/03 03:23:22;;;;;;;5.22;2.70;;;;;;;2.15;83.77;102388.03;5009975;28;20037;-66
2023/04/03 03:25:47;;;;;;;9.77;3.47;;;;;;;2.15;83.39;102392.25;5007440;28;20052;-68
2023/04/03 03:28:13;;;;;;;3.92;2.38;;;;;;;2.07;83.66;102391.00;5014257;28;20810;-68
2023/04/03 03:30:38;;;;;;;3.72;2.42;;;;;;;1.99;83.93;102405.88;5021219;28;20038;-68
2023/04/03 03:33:04;;;;;;;3.53;2.60;;;;;;;1.94;84.08;102396.25;5012766;28;20465;-67
2023/04/03 03:35:29;;;;;;;5.30;2.75;;;;;;;1.88;84.01;102401.91;5014995;28;20076;-68
2023/04/03 03:37:55;;;;;;;3.95;2.70;;;;;;;1.84;84.48;102402.53;5011767;28;20153;-67
2023/04/03 03:40:20;;;;;;;4.20;2.50;;;;;;;1.79;84.34;102402.28;5014921;28;20091;-67
2023/04/03 03:42:46;;;;;;;5.55;2.40;;;;;;;1.75;84.58;102400.38;5015968;28;20065;-68
2023/04/03 03:45:11;;;;;;;3.80;2.42;;;;;;;1.69;84.71;102401.72;5009600;28;20566;-67
2023/04/03 03:47:36;;;;;;;8.77;2.75;;;;;;;1.65;84.73;102399.81;5013561;28;20037;-67
2023/04/03 03:50:02;;;;;;;3.90;2.55;;;;;;;1.63;84.87;102402.25;5011467;28;20037;-68
2023/04/03 03:52:29;;;;;;;4.97;2.85;;;;;;;1.59;84.99;102402.03;5018675;28;20046;-67
2023/04/03 03:54:55;;;;;;;2.90;2.55;;;;;;;1.55;85.09;102403.53;5012823;28;20102;-68
2023/04/03 03:57:21;;;;;;;5.43;2.80;;;;;;;1.50;84.95;102410.06;5012213;28;20037;-67
2023/04/03 03:59:47;;;;;;;4.13;2.88;;;;;;;1.46;85.56;102397.06;5014050;28;20064;-67
2023/04/03 04:02:12;;;;;;;4.40;3.05;;;;;;;1.41;85.46;102403.59;5014522;28;20045;-67
2023/04/03 04:04:38;;;;;;;5.68;3.45;;;;;;;1.35;85.77;102404.13;5018852;28;20457;-67
2023/04/03 04:07:03;;;;;;;4.32;3.10;;;;;;;1.28;86.29;102397.81;5015509;28;20037;-68
2023/04/03 04:09:29;;;;;;;5.47;2.95;;;;;;;1.23;86.52;102404.34;5017159;28;20064;-68
2023/04/03 04:11:55;;;;;;;4.80;3.33;;;;;;;1.18;86.24;102402.34;5012334;28;20052;-68
2023/04/03 04:14:20;;;;;;;7.22;4.20;;;;;;;1.13;86.91;102409.69;5017639;28;20037;-67
2023/04/03 04:16:46;;;;;;;4.88;3.33;;;;;;;1.07;87.08;102406.81;5017198;28;20044;-68
2023/04/03 04:19:12;;;;;;;6.00;3.15;;;;;;;1.03;87.35;102411.66;5007892;28;20030;-68
2023/04/03 04:21:39;;;;;;;5.85;3.30;;;;;;;0.99;88.00;102414.81;5012279;28;20045;-68
2023/04/03 04:24:04;;;;;;;5.63;3.20;;;;;;;0.94;87.92;102422.22;5009025;28;20045;-67
2023/04/03 04:26:30;;;;;;;6.28;3.15;;;;;;;0.91;88.30;102423.69;5009729;28;20127;-68
2023/04/03 04:28:55;;;;;;;6.53;2.90;;;;;;;0.88;88.43;102419.31;5010849;28;20053;-67
2023/04/03 04:31:20;;;;;;;4.05;2.78;;;;;;;0.86;88.47;102413.22;5012306;28;20448;-70
2023/04/03 04:33:46;;;;;;;3.67;2.72;;;;;;;0.86;88.42;102417.44;5021835;28;20124;-70
2023/04/03 04:36:11;;;;;;;4.18;2.67;;;;;;;0.85;88.32;102419.13;5015144;28;20197;-70
2023/04/03 04:38:37;;;;;;;7.32;3.63;;;;;;;0.88;88.11;102416.75;5010277;28;20034;-70
2023/04/03 04:41:02;;;;;;;6.55;3.10;;;;;;;0.90;88.36;102419.38;5016517;28;20050;-70
2023/04/03 04:43:27;;;;;;;8.65;3.50;;;;;;;0.94;87.92;102422.22;5013878;28;20034;-69
2023/04/03 04:46:11;;;;;;;4.72;2.95;;;;;;;0.97;87.53;102424.94;5011838;28;20042;-71
2023/04/03 04:48:37;;;;;;;6.97;3.17;;;;;;;0.96;87.50;102428.25;5009886;28;20049;-71
2023/04/03 04:51:03;;;;;;;6.70;2.70;;;;;;;0.98;87.00;102433.41;5006810;28;20033;-70
2023/04/03 04:53:28;;;;;;;5.30;2.78;;;;;;;0.96;87.00;102430.78;5007057;28;20814;-70
2023/04/03 04:55:54;;;;;;;3.42;2.15;;;;;;;0.95;86.82;102435.78;5015738;28;20072;-70
2023/04/03 04:58:20;;;;;;;3.92;2.90;;;;;;;0.96;86.64;102438.44;5012334;28;20109;-70
2023/04/03 05:00:45;;;;;;;6.75;3.05;;;;;;;0.93;86.65;102438.25;5012524;28;20094;-70
2023/04/03 05:03:11;;;;;;;4.65;2.60;;;;;;;0.94;86.75;102439.13;5017744;28;20049;-70
2023/04/03 05:05:37;;;;;;;5.03;2.75;;;;;;;0.92;86.62;102439.03;5017741;28;20066;-70
2023/04/03 05:08:03;;;;;;;5.65;2.45;;;;;;;0.92;86.61;102441.59;5022210;28;20048;-70
2023/04/03 05:10:29;;;;;;;6.30;2.88;;;;;;;0.92;87.13;102444.13;5017970;28;20040;-70
2023/04/03 05:12:54;;;;;;;4.88;2.90;;;;;;;0.99;86.07;102447.91;5024345;28;20038;-70
2023/04/03 05:15:20;;;;;;;5.93;3.30;;;;;;;1.03;85.63;102448.19;5015655;28;20041;-70
2023/04/03 05:17:46;;;;;;;4.18;2.58;;;;;;;1.13;84.93;102441.91;5017801;28;20044;-70
2023/04/03 05:20:12;;;;;;;6.45;2.88;;;;;;;1.23;84.15;102446.75;5011352;28;20125;-70
2023/04/03 05:22:38;;;;;;;4.30;2.63;;;;;;;1.27;83.84;102438.50;5013985;28;20037;-69
2023/04/03 05:25:04;;;;;;;4.72;2.90;;;;;;;1.28;83.48;102445.31;5012939;28;20025;-69
2023/04/03 05:27:29;;;;;;;4.05;2.70;;;;;;;1.37;83.10;102445.84;5012161;28;20060;-69
2023/04/03 05:29:55;;;;;;;3.70;2.45;;;;;;;1.40;83.09;102450.22;5017894;28;20061;-69
2023/04/03 05:32:22;;;;;;;3.80;2.28;;;;;;;1.47;82.84;102445.56;5013045;28;20036;-69
2023/04/03 05:34:47;;;;;;;5.88;2.42;;;;;;;1.52;82.59;102450.91;5025966;28;20538;-69
2023/04/03 05:37:12;;;;;;;3.67;2.30;;;;;;;1.56;82.45;102451.16;5025538;28;20082;-70
2023/04/03 05:39:40;;;;;;;5.40;2.30;;;;;;;1.65;81.87;102449.13;5018070;28;20033;-69
2023/04/03 05:42:06;;;;;;;4.03;2.17;;;;;;;1.71;82.08;102452.00;5016015;28;20037;-69
2023/04/03 05:44:31;;;;;;;6.03;2.15;;;;;;;1.77;81.57;102454.88;5018907;28;20090;-69
2023/04/03 05:46:57;;;;;;;4.82;2.45;;;;;;;1.84;81.39;102453.50;5018442;28;20033;-69
2023/04/03 05:49:22;;;;;;;3.40;2.30;;;;;;;1.93;81.07;102448.91;5014402;28;20096;-70
2023/04/03 05:51:47;;;;;;;5.32;2.30;;;;;;;1.97;80.46;102461.03;5013954;28;20410;-70
2023/04/03 05:54:21;;;;;;;3.20;2.20;;;;;;;2.00;80.66;102460.31;5004962;28;20140;-69
2023/04/03 05:56:46;;;;;;;7.32;2.33;;;;;;;2.11;79.84;102459.19;5023376;28;20083;-69
2023/04/03 05:59:12;;;;;;;6.97;2.30;;;;;;;2.19;79.42;102458.78;5025706;28;20511;-70
2023/04/03 06:01:37;;;;;;;5.35;2.25;;;;;;;2.29;78.81;102463.59;5016793;28;20042;-70
2023/04/03 06:04:03;;;;;;;6.85;2.22;;;;;;;2.36;78.63;102463.13;5020747;28;20119;-70
2023/04/03 06:06:47;;;;;;;5.80;2.20;;;;;;;2.48;78.18;102459.44;5021086;28;20557;-70
2023/04/03 06:09:14;;;;;;;3.88;2.30;;;;;;;2.55;77.70;102456.41;5021350;28;20037;-70
2023/04/03 06:11:40;;;;;;;9.60;2.35;;;;;;;2.58;77.34;102456.56;5019542;28;20116;-69
2023/04/03 06:14:06;;;;;;;6.18;2.20;;;;;;;2.70;76.43;102459.72;5017384;28;20224;-70
2023/04/03 06:16:32;;;;;;;4.57;2.00;;;;;;;2.79;76.59;102458.50;5014862;28;20037;-70
2023/04/03 06:18:57;;;;;;;8.23;2.30;;;;;;;2.82;76.75;102473.09;5015727;28;20037;-70
2023/04/03 06:21:22;;;;;;;4.57;2.05;;;;;;;2.91;76.76;102471.88;5017087;28;20479;-69
2023/04/03 06:23:48;;;;;;;7.35;2.03;;;;;;;2.94;76.52;102468.59;5019150;28;20044;-69
2023/04/03 06:26:13;;;;;;;5.60;1.88;;;;;;;3.00;75.75;102468.91;5013655;28;20048;-68
2023/04/03 06:28:39;;;;;;;5.50;2.30;;;;;;;3.12;74.83;102453.28;5016117;28;20620;-69
2023/04/03 06:31:04;;;;;;;4.85;1.92;;;;;;;3.21;75.04;102454.63;5013632;28;20026;-70
2023/04/03 06:33:30;;;;;;;3.10;1.85;;;;;;;3.25;73.61;102430.09;5013878;28;20497;-70
2023/04/03 06:35:57;;;;;;;6.25;2.10;;;;;;;3.33;74.55;102444.97;5011448;28;20041;-70
2023/04/03 06:38:23;;;;;;;5.85;1.67;;;;;;;3.39;73.85;102437.59;5007516;28;20038;-69
2023/04/03 06:40:48;;;;;;;3.95;1.70;;;;;;;3.47;73.72;102426.06;5016102;28;20820;-69
2023/04/03 06:43:14;;;;;;;7.25;2.03;;;;;;;3.56;72.26;102414.53;5013939;28;20063;-70
2023/04/03 06:45:39;;;;;;;4.05;1.85;;;;;;;3.65;72.61;102412.34;5010372;28;20038;-67
2023/04/03 06:48:05;;;;;;;5.47;2.03;;;;;;;3.70;72.75;102431.38;5010624;28;20042;-69
2023/04/03 06:50:30;;;;;;;2.88;1.48;;;;;;;3.75;70.92;102383.84;5013493;28;20088;-69
2023/04/03 06:52:56;;;;;;;7.00;2.10;;;;;;;3.81;72.06;102410.59;5012781;28;20037;-68
2023/04/03 06:55:22;;;;;;;4.00;1.90;;;;;;;3.87;71.63;102397.19;5017828;28;20083;-67
2023/04/03 06:57:47;;;;;;;4.25;2.10;;;;;;;3.93;71.72;102403.47;5013069;28;20110;-66
2023/04/03 07:00:14;;;;;;;10.18;2.42;;;;;;;4.01;71.73;102401.22;5009596;28;20041;-67
2023/04/03 07:02:40;;;;;;;6.20;1.90;;;;;;;4.08;71.43;102399.03;5016682;28;20132;-67
2023/04/03 07:05:06;;;;;;;5.40;1.80;;;;;;;4.11;69.41;102352.22;5015052;28;20045;-67
2023/04/03 07:07:33;;;;;;;9.07;2.00;;;;;;;4.15;70.23;102366.88;5013216;28;20565;-67
2023/04/03 07:09:59;;;;;;;4.53;1.60;;;;;;;4.22;70.23;102371.47;5025497;28;20564;-68
2023/04/03 07:12:24;;;;;;;5.53;2.28;;;;;;;4.26;69.92;102363.13;5011679;28;20059;-67
2023/04/03 07:14:50;;;;;;;4.47;1.63;;;;;;;4.34;69.55;102358.31;5013213;28;20045;-68
2023/04/03 07:17:15;;;;;;;5.60;1.65;;;;;;;4.39;69.73;102364.50;5011124;28;20530;-67
2023/04/03 07:19:41;;;;;;;3.95;2.08;;;;;;;4.48;68.05;102352.06;5016807;28;20041;-66
2023/04/03 07:22:07;;;;;;;3.95;1.70;;;;;;;4.58;67.75;102334.59;5014334;28;20064;-67
2023/04/03 07:24:33;;;;;;;4.82;1.90;;;;;;;4.61;67.50;102341.53;5012417;28;20042;-68
2023/04/03 07:26:58;;;;;;;3.08;1.60;;;;;;;4.70;66.54;102323.09;5012728;28;20040;-68
2023/04/03 07:29:24;;;;;;;4.68;1.45;;;;;;;4.75;66.09;102326.69;5014961;28;20041;-68
2023/04/03 07:31:49;;;;;;;4.38;1.70;;;;;;;4.75;65.81;102319.91;5009838;28;20103;-68
2023/04/03 07:34:15;;;;;;;4.45;1.35;;;;;;;4.80;66.12;102336.34;5015163;28;20482;-68
2023/04/03 07:36:41;;;;;;;6.78;1.80;;;;;;;4.86;65.85;102325.47;5015806;28;20091;-67
2023/04/03 07:39:07;;;;;;;6.68;2.13;;;;;;;4.88;65.86;102331.53;5017032;28;20151;-68
2023/04/03 07:41:33;;;;;;;7.15;1.83;;;;;;;4.91;65.09;102329.97;5012681;28;20041;-68
2023/04/03 07:43:58;;;;;;;3.53;1.63;;;;;;;5.03;64.47;102316.75;5014897;28;20044;-68
2023/04/03 07:46:24;;;;;;;4.65;1.73;;;;;;;5.05;64.40;102308.28;5012608;28;20024;-69
2023/04/03 07:48:49;;;;;;;3.67;1.70;;;;;;;5.09;65.29;102330.69;5006832;28;20118;-68
2023/04/03 07:51:16;;;;;;;3.90;1.65;;;;;;;5.15;65.71;102341.16;5010551;28;20033;-68
2023/04/03 07:53:41;;;;;;;3.92;1.67;;;;;;;5.18;64.70;102313.09;5014171;28;20143;-68
2023/04/03 07:56:07;;;;;;;5.65;1.70;;;;;;;5.22;65.26;102325.19;5012167;28;20452;-68
2023/04/03 07:58:33;;;;;;;4.70;1.50;;;;;;;5.23;64.42;102315.81;5013072;28;20060;-68
2023/04/03 08:00:58;;;;;;;4.25;1.50;;;;;;;5.30;63.79;102315.25;5013834;28;21016;-68
2023/04/03 08:03:24;;;;;;;5.38;1.85;;;;;;;5.23;63.87;102306.44;5015807;28;20487;-68
2023/04/03 08:05:50;;;;;;;2.78;1.40;;;;;;;5.32;64.12;102333.22;5016952;28;20041;-68
2023/04/03 08:08:19;;;;;;;8.18;2.17;;;;;;;5.38;64.03;102328.31;5018376;28;20037;-68
2023/04/03 08:10:49;;;;;;;2.17;1.25;;;;;;;5.45;64.04;102332.88;5020727;28;20029;-67
2023/04/03 08:13:15;;;;;;;5.75;1.88;;;;;;;5.52;63.03;102310.06;4996021;28;20434;-67
2023/04/03 08:15:40;;;;;;;7.50;1.85;;;;;;;5.52;64.24;102316.88;5013451;28;20048;-67
2023/04/03 08:18:06;;;;;;;5.78;1.63;;;;;;;5.63;63.31;102321.63;5008317;28;20048;-67
2023/04/03 08:20:31;;;;;;;3.17;1.42;;;;;;;5.70;62.24;102307.28;5013808;28;20080;-67
2023/04/03 08:22:56;;;;;;;2.80;1.20;;;;;;;5.71;61.28;102280.84;5017696;28;20037;-68
2023/04/03 08:25:22;;;;;;;6.30;1.45;;;;;;;5.85;61.82;102296.69;5013368;28;20033;-67
2023/04/03 08:27:47;;;;;;;8.32;1.40;;;;;;;5.82;61.19;102282.06;5017289;28;20040;-68
2023/04/03 08:30:13;;;;;;;6.30;1.55;;;;;;;5.87;60.92;102282.25;5021945;28;20461;-67
2023/04/03 08:32:41;;;;;;;6.78;2.05;;;;;;;5.82;61.13;102291.47;5020303;28;20049;-67
2023/04/03 08:35:07;;;;;;;5.82;1.40;;;;;;;5.95;61.33;102307.34;5024667;28;20149;-67
2023/04/03 08:37:36;;;;;;;7.95;1.67;;;;;;;5.92;59.48;102262.75;5019672;28;20044;-67
2023/04/03 08:40:02;;;;;;;6.03;1.77;;;;;;;6.02;59.91;102278.50;5019502;28;20018;-67
2023/04/03 08:42:47;;;;;;;3.50;1.80;;;;;;;6.11;60.84;102296.78;5021319;28;20403;-67
2023/04/03 08:45:35;;;;;;;8.23;2.80;;;;;;;6.15;60.94;102295.19;5013954;28;20142;-67
2023/04/03 08:48:14;;;;;;;6.32;1.60;;;;;;;6.20;58.72;102261.16;5013535;28;20976;-67
2023/04/03 08:50:43;;;;;;;6.35;1.60;;;;;;;6.18;58.83;102273.06;5017257;28;20771;-67
2023/04/03 08:53:22;;;;;;;4.30;1.63;;;;;;;6.20;58.93;102270.56;5018025;28;20033;-67
2023/04/03 08:55:51;;;;;;;4.10;1.73;;;;;;;6.31;58.43;102274.34;5016631;28;20039;-67
2023/04/03 08:58:24;;;;;;;3.90;1.52;;;;;;;6.49;58.29;102279.22;5018918;28;20699;-67
2023/04/03 09:01:04;;;;;;;6.60;2.17;;;;;;;6.48;57.62;102275.78;5017435;28;20125;-68
2023/04/03 09:03:39;;;;;;;3.85;1.30;;;;;;;6.58;58.36;102277.81;5018332;28;20056;-67
2023/04/03 09:06:10;;;;;;;4.78;1.70;;;;;;;6.69;59.28;102299.59;5015544;28;20908;-68
2023/04/03 09:08:59;;;;;;;3.72;1.40;;;;;;;6.75;56.87;102253.53;5018013;28;20116;-69
2023/04/03 09:11:58;;;;;;;4.80;1.33;;;;;;;6.80;56.48;102262.25;5014221;28;20041;-67
2023/04/03 09:14:51;;;;;;;6.55;1.50;;;;;;;6.68;54.47;102207.91;5015031;28;20116;-68
2023/04/03 09:17:30;;;;;;;4.57;1.55;;;;;;;6.88;56.84;102258.19;5015815;28;20137;-68
2023/04/03 09:20:08;;;;;;;5.15;1.55;;;;;;;6.84;55.06;102222.97;5017373;28;20037;-68
2023/04/03 09:22:38;;;;;;;4.28;1.70;;;;;;;6.93;54.86;102221.50;5017426;28;20032;-68
2023/04/03 09:25:25;;;;;;;4.00;1.40;;;;;;;7.05;54.22;102214.13;5015758;28;20057;-68
2023/04/03 09:27:51;;;;;;;9.23;1.52;;;;;;;7.14;54.61;102228.13;5014858;28;20040;-67
2023/04/03 09:30:23;;;;;;;4.65;1.52;;;;;;;7.24;53.88;102219.88;5013856;28;20122;-67
2023/04/03 09:32:53;;;;;;;5.57;1.40;;;;;;;7.31;54.61;102233.78;5016053;28;20034;-68
2023/04/03 09:35:26;;;;;;;4.38;1.40;;;;;;;7.27;54.01;102234.50;5013353;28;20503;-67
2023/04/03 09:38:11;;;;;;;3.35;1.23;;;;;;;7.36;53.96;102229.63;5015329;28;20816;-68
2023/04/03 09:40:41;;;;;;;;;;;;;;;7.45;53.32;102219.59;5018898;28;20033;-68
2023/04/03 09:43:15;;;;;;;8.13;1.15;;;;;;;7.54;52.22;102206.97;5017224;28;19915;-68
2023/04/03 09:45:41;;;;;;;6.72;2.00;;;;;;;7.65;52.71;102205.59;5016549;28;20730;-68
2023/04/03 09:48:12;;;;;;;4.90;1.20;;;;;;;7.93;53.43;102230.31;5016801;28;20052;-67
2023/04/03 09:51:01;;;;;;;3.60;1.13;;;;;;;7.95;52.00;102216.66;5016311;28;20513;-68
2023/04/03 09:53:33;;;;;;;4.00;1.30;;;;;;;8.00;52.07;102212.50;5014220;28;20080;-67
2023/04/03 09:56:00;;;;;;;5.35;0.93;;;;;;;7.79;49.21;102169.91;5016622;28;20902;-67
2023/04/03 09:58:48;;;;;;;5.75;1.60;;;;;;;7.71;51.08;102205.75;5011048;28;20087;-68
2023/04/03 10:01:31;;;;;;;3.42;1.40;;;;;;;7.70;51.58;102208.25;5014069;28;20509;-68
2023/04/03 10:04:15;;;;;;;4.53;1.83;;;;;;;7.75;52.72;102225.56;5011238;28;20041;-68
2023/04/03 10:06:53;;;;;;;3.00;1.10;;;;;;;7.94;51.01;102214.94;5014197;28;20068;-68
2023/04/03 10:09:25;;;;;;;3.75;1.33;;;;;;;8.14;51.57;102217.09;5014043;28;20451;-68
2023/04/03 10:11:56;;;;;;;4.18;1.05;;;;;;;8.11;49.63;102178.41;5020569;28;20037;-67
2023/04/03 10:14:22;;;;;;;5.55;1.50;;;;;;;8.13;48.10;102151.00;5013230;28;20045;-68
2023/04/03 10:17:20;;;;;;;2.80;1.13;;;;;;;8.16;48.10;102161.38;5016595;28;20716;-68
2023/04/03 10:20:01;;;;;;;5.55;1.55;;;;;;;8.05;48.15;102173.97;5014620;28;20045;-68
2023/04/03 10:22:26;;;;;;;3.17;1.30;;;;;;;8.19;48.20;102166.59;5017588;28;20041;-72
2023/04/03 10:24:58;;;;;;;4.82;1.35;;;;;;;8.20;48.14;102165.75;5017856;28;20095;-72
2023/04/03 10:27:42;;;;;;;2.72;1.13;;;;;;;8.08;46.34;102140.56;5018146;28;20037;-74
2023/04/03 10:30:32;;;;;;;4.47;1.40;;;;;;;8.24;47.14;102158.16;5014832;28;20033;-71
2023/04/03 10:33:11;;;;;;;3.15;1.27;;;;;;;8.33;46.59;102135.19;5015611;28;20553;-74
2023/04/03 10:35:44;;;;;;;2.35;1.02;;;;;;;8.44;46.03;102107.06;5008301;28;20111;-74
2023/04/03 10:38:22;;;;;;;4.25;1.40;;;;;;;8.34;42.39;102079.34;5008588;28;20065;-73
2023/04/03 10:41:11;;;;;;;2.67;1.00;;;;;;;8.39;45.50;102118.97;5014605;28;20038;-72
2023/04/03 10:43:49;;;;;;;6.18;1.98;;;;;;;8.08;44.53;102101.94;5016659;28;20486;-72
2023/04/03 10:46:27;;;;;;;2.85;0.88;;;;;;;8.10;43.85;102094.28;5018656;28;20037;-70
2023/04/03 10:49:03;;;;;;;2.17;0.93;;;;;;;8.40;43.75;102102.66;5016610;28;20132;-71
2023/04/03 10:51:41;;;;;;;6.20;1.52;;;;;;;8.49;45.03;102126.06;5016399;28;20478;-72
2023/04/03 10:54:26;;;;;;;3.03;0.90;;;;;;;8.73;43.44;102097.34;5024851;28;20048;-72
2023/04/03 10:57:00;;;;;;;4.38;1.40;;;;;;;8.93;44.02;102099.47;5015832;28;20589;-71
2023/04/03 10:59:49;;;;;;;2.22;1.00;;;;;;;8.77;43.08;102087.16;5014497;28;20502;-70
2023/04/03 11:02:23;;;;;;;2.22;1.10;;;;;;;8.93;44.14;102108.97;5013643;28;20518;-71
2023/04/03 11:04:55;;;;;;;3.75;1.67;;;;;;;8.92;41.14;102051.34;5031822;28;20051;-71
2023/04/03 11:07:24;;;;;;;1.92;0.80;;;;;;;9.01;42.01;102069.56;5023900;28;20429;-71
2023/04/03 11:10:01;;;;;;;4.65;1.27;;;;;;;9.18;44.10;102107.69;5018395;28;20270;-73
2023/04/03 11:12:33;;;;;;;3.35;1.05;;;;;;;9.10;43.40;102102.41;5018343;28;20825;-70
2023/04/03 11:15:00;;;;;;;3.72;1.25;;;;;;;9.11;43.56;102107.56;5014902;28;20406;-71
2023/04/03 11:17:46;;;;;;;3.05;1.35;;;;;;;9.16;43.42;102089.63;5010034;28;20116;-72
2023/04/03 11:20:32;;;;;;;3.92;1.10;;;;;;;9.20;42.68;102083.66;5018097;28;20049;-72
2023/04/03 11:23:16;;;;;;;2.28;1.02;;;;;;;9.29;43.48;102101.88;5013440;28;20081;-71
2023/04/03 11:25:43;;;;;;;3.42;1.10;;;;;;;8.97;42.88;102087.53;5014059;28;20037;-70
2023/04/03 11:28:15;;;;;;;2.78;1.20;;;;;;;9.24;42.77;102111.25;5013856;28;20029;-70
2023/04/03 11:30:49;;;;;;;3.17;1.27;;;;;;;9.08;39.64;102048.19;5014926;28;20702;-69
2023/04/03 11:33:39;;;;;;;2.88;1.20;;;;;;;8.99;42.42;102084.13;5014747;28;20065;-70
2023/04/03 11:36:30;;;;;;;2.42;1.10;;;;;;;9.33;40.98;102070.16;5013572;28;20034;-70
2023/04/03 11:39:00;;;;;;;2.40;0.93;;;;;;;9.61;40.17;102049.13;5007282;28;20115;-70
2023/04/03 11:41:28;;;;;;;6.82;1.27;;;;;;;9.88;41.15;102078.84;5014973;28;20065;-69
2023/04/03 11:44:03;;;;;;;2.05;1.17;;;;;;;9.34;39.22;102043.50;5019424;28;20116;-71